createdAt,value
2022-11-05T00:00:21.778Z,8.48
2022-11-05T00:03:42.138Z,8.47
2022-11-05T00:07:03.227Z,8.38
2022-11-05T00:10:29.721Z,8.42
2022-11-05T00:13:50.135Z,8.39
2022-11-05T00:16:51.975Z,8.35
2022-11-05T00:19:54.139Z,8.39
2022-11-05T00:23:24.712Z,8.27
2022-11-05T00:26:26.605Z,8.40
2022-11-05T00:29:29.972Z,8.33
2022-11-05T00:32:33.031Z,8.41
2022-11-05T00:35:35.025Z,8.43
2022-11-05T00:38:37.135Z,8.35
2022-11-05T00:41:38.973Z,8.33
2022-11-05T00:44:59.518Z,8.38
2022-11-05T00:48:19.893Z,8.30
2022-11-05T00:51:21.747Z,8.36
2022-11-05T00:54:26.054Z,8.33
2022-11-05T00:57:27.857Z,8.30
2022-11-05T01:00:31.342Z,8.31
2022-11-05T01:03:35.802Z,8.18
2022-11-05T01:06:37.536Z,8.21
2022-11-05T01:09:39.359Z,8.29
2022-11-05T01:12:41.292Z,8.26
2022-11-05T01:15:43.518Z,8.35
2022-11-05T01:18:45.352Z,8.27
2022-11-05T01:21:47.343Z,8.25
2022-11-05T01:24:49.136Z,8.28
2022-11-05T01:27:51.027Z,8.29
2022-11-05T01:30:57.025Z,8.31
2022-11-05T01:34:00.358Z,8.30
2022-11-05T01:37:02.283Z,8.32
2022-11-05T01:40:04.873Z,8.29
2022-11-05T01:43:15.141Z,8.25
2022-11-05T01:46:21.442Z,8.13
2022-11-05T01:49:29.950Z,8.17
2022-11-05T01:52:33.156Z,8.21
2022-11-05T01:55:38.696Z,8.08
2022-11-05T01:58:46.504Z,8.03
2022-11-05T02:01:48.852Z,8.07
2022-11-05T02:04:57.508Z,7.96
2022-11-05T02:07:59.867Z,8.03
2022-11-05T02:11:01.725Z,8.07
2022-11-05T02:14:03.677Z,8.11
2022-11-05T02:17:09.972Z,8.09
2022-11-05T02:20:11.660Z,8.09
2022-11-05T02:23:31.787Z,8.13
2022-11-05T02:26:56.856Z,8.10
2022-11-05T02:30:24.327Z,7.95
2022-11-05T02:33:57.173Z,7.89
2022-11-05T02:37:10.926Z,7.80
2022-11-05T02:40:27.304Z,7.73
2022-11-05T02:43:48.129Z,7.72
2022-11-05T02:47:18.432Z,7.68
2022-11-05T02:50:28.251Z,7.57
2022-11-05T02:53:35.106Z,7.70
2022-11-05T02:56:39.870Z,7.66
2022-11-05T02:59:41.714Z,7.58
2022-11-05T03:02:43.511Z,7.53
2022-11-05T03:06:13.446Z,7.51
2022-11-05T03:09:24.329Z,7.48
2022-11-05T03:13:03.245Z,7.33
2022-11-05T03:16:13.715Z,7.35
2022-11-05T03:19:36.496Z,7.41
2022-11-05T03:22:50.063Z,7.39
2022-11-05T03:25:57.308Z,7.37
2022-11-05T03:29:01.666Z,7.32
2022-11-05T03:32:04.816Z,7.32
2022-11-05T03:35:15.322Z,7.26
2022-11-05T03:38:23.080Z,7.31
2022-11-05T03:41:26.080Z,7.31
2022-11-05T03:44:31.507Z,7.32
2022-11-05T03:47:37.669Z,7.32
2022-11-05T03:50:45.652Z,7.25
2022-11-05T03:53:50.856Z,7.33
2022-11-05T03:57:01.679Z,7.53
2022-11-05T04:00:08.013Z,7.43
2022-11-05T04:03:13.482Z,7.44
2022-11-05T04:06:34.231Z,7.43
2022-11-05T04:09:54.578Z,7.44
2022-11-05T04:13:14.917Z,7.45
2022-11-05T04:16:35.507Z,7.44
2022-11-05T04:19:57.995Z,7.42
2022-11-05T04:23:23.500Z,7.46
2022-11-05T04:26:25.430Z,7.48
2022-11-05T04:29:45.899Z,7.50
2022-11-05T04:32:56.972Z,7.36
2022-11-05T04:36:00.349Z,7.33
2022-11-05T04:39:02.191Z,7.36
2022-11-05T04:42:04.120Z,7.34
2022-11-05T04:45:06.161Z,7.52
2022-11-05T04:48:08.881Z,7.44
2022-11-05T04:51:10.629Z,7.58
2022-11-05T04:54:12.343Z,7.64
2022-11-05T04:57:14.005Z,7.62
2022-11-05T05:00:16.179Z,7.72
2022-11-05T05:03:18.211Z,7.74
2022-11-05T05:06:20.448Z,7.63
2022-11-05T05:09:22.500Z,7.70
2022-11-05T05:12:24.456Z,7.82
2022-11-05T05:15:26.283Z,7.97
2022-11-05T05:18:29.124Z,7.71
2022-11-05T05:21:39.371Z,7.70
2022-11-05T05:24:47.361Z,7.63
2022-11-05T05:27:51.754Z,7.51
2022-11-05T05:30:58.624Z,7.66
2022-11-05T05:34:00.683Z,7.54
2022-11-05T05:37:02.688Z,7.56
2022-11-05T05:40:04.698Z,7.57
2022-11-05T05:43:06.697Z,7.47
2022-11-05T05:46:11.804Z,7.51
2022-11-05T05:49:13.815Z,7.51
2022-11-05T05:52:15.963Z,7.49
2022-11-05T05:55:18.051Z,7.46
2022-11-05T05:58:20.052Z,7.42
2022-11-05T06:01:22.336Z,7.39
2022-11-05T06:04:24.343Z,7.38
2022-11-05T06:07:37.033Z,7.38
2022-11-05T06:10:39.386Z,7.45
2022-11-05T06:13:41.409Z,7.45
2022-11-05T06:16:43.585Z,7.44
2022-11-05T06:19:45.548Z,7.42
2022-11-05T06:23:08.351Z,7.41
2022-11-05T06:26:13.948Z,7.43
2022-11-05T06:29:15.901Z,7.44
2022-11-05T06:32:17.974Z,7.43
2022-11-05T06:35:19.966Z,7.48
2022-11-05T06:38:22.413Z,7.45
2022-11-05T06:41:24.541Z,7.49
2022-11-05T06:44:27.604Z,7.60
2022-11-05T06:47:29.707Z,7.57
2022-11-05T06:50:31.843Z,7.58
2022-11-05T06:53:34.741Z,7.61
2022-11-05T06:56:36.968Z,7.58
2022-11-05T06:59:40.111Z,7.57
2022-11-05T07:02:42.279Z,7.59
2022-11-05T07:05:47.063Z,7.54
2022-11-05T07:08:49.708Z,7.55
2022-11-05T07:11:51.522Z,7.54
2022-11-05T07:14:54.010Z,7.52
2022-11-05T07:18:00.720Z,7.54
2022-11-05T07:21:02.764Z,7.54
2022-11-05T07:24:05.310Z,7.56
2022-11-05T07:27:07.254Z,7.59
2022-11-05T07:30:11.238Z,7.59
2022-11-05T07:33:14.203Z,7.67
2022-11-05T07:36:16.310Z,7.71
2022-11-05T07:39:18.737Z,7.77
2022-11-05T07:42:20.913Z,7.70
2022-11-05T07:45:24.293Z,7.71
2022-11-05T07:48:26.519Z,7.78
2022-11-05T07:51:28.547Z,7.83
2022-11-05T07:54:30.845Z,7.84
2022-11-05T07:57:32.753Z,7.84
2022-11-05T08:00:35.146Z,7.91
2022-11-05T08:03:37.847Z,7.95
2022-11-05T08:06:39.850Z,8.09
2022-11-05T08:09:41.763Z,8.14
2022-11-05T08:12:43.714Z,8.09
2022-11-05T08:15:45.650Z,8.22
2022-11-05T08:18:48.907Z,8.30
2022-11-05T08:21:51.081Z,8.34
2022-11-05T08:24:53.707Z,8.62
2022-11-05T08:28:01.482Z,8.59
2022-11-05T08:31:06.965Z,8.66
2022-11-05T08:34:09.679Z,8.78
2022-11-05T08:37:12.482Z,8.70
2022-11-05T08:40:14.422Z,8.76
2022-11-05T08:43:16.460Z,8.86
2022-11-05T08:46:19.277Z,8.90
2022-11-05T08:49:21.943Z,8.82
2022-11-05T08:52:24.028Z,9.00
2022-11-05T08:55:26.363Z,9.05
2022-11-05T08:58:28.527Z,9.06
2022-11-05T09:01:30.756Z,9.08
2022-11-05T09:04:32.885Z,9.02
2022-11-05T09:07:35.893Z,9.06
2022-11-05T09:10:38.453Z,9.12
2022-11-05T09:13:40.880Z,8.95
2022-11-05T09:16:43.008Z,9.13
2022-11-05T09:19:45.788Z,9.16
2022-11-05T09:22:47.905Z,9.19
2022-11-05T09:25:50.006Z,9.07
2022-11-05T09:28:51.960Z,9.13
2022-11-05T09:31:56.708Z,9.01
2022-11-05T09:35:01.490Z,9.04
2022-11-05T09:38:03.818Z,9.22
2022-11-05T09:41:09.041Z,9.31
2022-11-05T09:44:25.418Z,9.30
2022-11-05T09:47:32.028Z,9.22
2022-11-05T09:50:38.558Z,9.10
2022-11-05T09:53:41.383Z,9.30
2022-11-05T09:56:43.918Z,9.37
2022-11-05T09:59:51.181Z,9.27
2022-11-05T10:02:59.688Z,9.31
2022-11-05T10:06:12.398Z,9.42
2022-11-05T10:09:39.526Z,9.47
2022-11-05T10:12:52.381Z,9.51
2022-11-05T10:16:13.268Z,9.57
2022-11-05T10:19:26.764Z,9.52
2022-11-05T10:22:29.162Z,9.45
2022-11-05T10:25:33.768Z,9.47
2022-11-05T10:28:35.991Z,9.43
2022-11-05T10:31:38.168Z,9.49
2022-11-05T10:34:40.144Z,9.48
2022-11-05T10:37:42.336Z,9.35
2022-11-05T10:41:05.335Z,9.33
2022-11-05T10:44:27.730Z,9.44
2022-11-05T10:47:39.017Z,9.35
2022-11-05T10:50:41.731Z,9.48
2022-11-05T10:53:58.727Z,9.47
2022-11-05T10:57:36.910Z,9.42
2022-11-05T11:00:39.682Z,9.63
2022-11-05T11:03:49.824Z,9.59
2022-11-05T11:06:54.343Z,9.60
2022-11-05T11:09:56.454Z,9.55
2022-11-05T11:12:58.700Z,9.60
2022-11-05T11:16:23.593Z,9.54
2022-11-05T11:19:36.065Z,9.58
2022-11-05T11:22:39.054Z,9.46
2022-11-05T11:26:01.747Z,9.47
2022-11-05T11:29:16.967Z,9.38
2022-11-05T11:32:24.358Z,9.42
2022-11-05T11:35:26.744Z,9.37
2022-11-05T11:38:31.451Z,9.33
2022-11-05T11:41:39.440Z,9.34
2022-11-05T11:44:45.571Z,9.29
2022-11-05T11:47:49.158Z,9.20
2022-11-05T11:50:51.415Z,9.23
2022-11-05T11:53:57.270Z,9.21
2022-11-05T11:56:59.655Z,9.17
2022-11-05T12:00:08.802Z,9.26
2022-11-05T12:03:11.779Z,9.39
2022-11-05T12:06:33.432Z,9.24
2022-11-05T12:10:14.431Z,9.34
2022-11-05T12:13:19.526Z,9.37
2022-11-05T12:16:30.212Z,9.39
2022-11-05T12:19:38.364Z,9.38
2022-11-05T12:23:00.624Z,9.45
2022-11-05T12:26:36.612Z,9.37
2022-11-05T12:30:04.000Z,9.24
2022-11-05T12:33:12.570Z,9.28
2022-11-05T12:37:00.533Z,9.23
2022-11-05T12:40:24.098Z,9.25
2022-11-05T12:44:00.981Z,9.33
2022-11-05T12:47:31.933Z,9.26
2022-11-05T12:50:43.123Z,9.42
2022-11-05T12:54:01.905Z,9.37
2022-11-05T12:57:18.090Z,9.22
2022-11-05T13:00:22.519Z,9.26
2022-11-05T13:03:25.018Z,9.21
2022-11-05T13:06:42.540Z,9.22
2022-11-05T13:09:52.943Z,9.20
2022-11-05T13:13:29.826Z,9.24
2022-11-05T13:16:45.651Z,9.18
2022-11-05T13:19:59.330Z,9.33
2022-11-05T13:23:14.656Z,9.28
2022-11-05T13:26:38.352Z,9.27
2022-11-05T13:29:53.014Z,9.24
2022-11-05T13:33:11.078Z,9.31
2022-11-05T13:36:49.941Z,9.29
2022-11-05T13:40:00.827Z,9.32
2022-11-05T13:43:03.310Z,9.20
2022-11-05T13:46:34.592Z,9.20
2022-11-05T13:49:39.802Z,9.20
2022-11-05T13:53:20.436Z,9.12
2022-11-05T13:56:38.228Z,9.08
2022-11-05T13:59:46.429Z,9.07
2022-11-05T14:02:54.438Z,9.05
2022-11-05T14:06:03.828Z,8.98
2022-11-05T14:09:11.691Z,9.02
2022-11-05T14:12:29.325Z,9.01
2022-11-05T14:15:32.007Z,8.96
2022-11-05T14:18:38.053Z,9.01
2022-11-05T14:21:59.822Z,8.98
2022-11-05T14:25:22.820Z,9.02
2022-11-05T14:28:46.060Z,9.03
2022-11-05T14:32:08.249Z,9.01
2022-11-05T14:35:17.727Z,9.02
2022-11-05T14:38:25.480Z,9.08
2022-11-05T14:41:27.670Z,9.04
2022-11-05T14:44:31.731Z,9.07
2022-11-05T14:47:37.250Z,8.99
2022-11-05T14:50:41.481Z,9.02
2022-11-05T14:53:43.741Z,8.99
2022-11-05T14:56:53.287Z,9.01
2022-11-05T15:00:02.344Z,8.98
2022-11-05T15:03:31.720Z,8.98
2022-11-05T15:06:38.255Z,9.01
2022-11-05T15:09:49.832Z,8.98
2022-11-05T15:13:03.355Z,8.94
2022-11-05T15:16:09.587Z,8.94
2022-11-05T15:19:36.256Z,8.95
2022-11-05T15:22:44.265Z,8.96
2022-11-05T15:25:56.340Z,8.95
2022-11-05T15:28:58.711Z,8.93
2022-11-05T15:32:00.923Z,8.92
2022-11-05T15:35:03.175Z,8.90
2022-11-05T15:38:24.621Z,8.88
2022-11-05T15:41:33.854Z,8.84
2022-11-05T15:44:41.465Z,8.80
2022-11-05T15:47:46.487Z,8.89
2022-11-05T15:50:48.786Z,8.87
2022-11-05T15:57:26.687Z,8.85
2022-11-05T16:00:31.175Z,8.87
2022-11-05T16:03:34.257Z,8.86
2022-11-05T16:06:39.055Z,8.89
2022-11-05T16:09:44.059Z,8.86
2022-11-05T16:12:46.581Z,8.83
2022-11-05T16:15:56.554Z,8.86
2022-11-05T16:18:58.423Z,8.86
2022-11-05T16:22:03.052Z,8.85
2022-11-05T16:25:23.012Z,8.80
2022-11-05T16:28:27.739Z,8.79
2022-11-05T16:31:32.314Z,8.82
2022-11-05T16:34:47.406Z,8.81
2022-11-05T16:37:52.196Z,8.83
2022-11-05T16:40:54.535Z,8.81
2022-11-05T16:44:00.356Z,8.82
2022-11-05T16:47:02.292Z,8.79
2022-11-05T16:50:22.162Z,8.81
2022-11-05T16:53:24.193Z,8.77
2022-11-05T16:56:26.123Z,8.81
2022-11-05T16:59:29.429Z,8.75
2022-11-05T17:02:31.695Z,8.74
2022-11-05T17:05:33.770Z,8.67
2022-11-05T17:08:39.630Z,8.66
2022-11-05T17:11:41.818Z,8.64
2022-11-05T17:14:44.267Z,8.67
2022-11-05T17:17:46.436Z,8.70
2022-11-05T17:20:51.240Z,8.65
2022-11-05T17:23:53.164Z,8.66
2022-11-05T17:26:55.534Z,8.64
2022-11-05T17:29:57.611Z,8.63
2022-11-05T17:32:59.957Z,8.64
2022-11-05T17:36:09.437Z,8.66
2022-11-05T17:39:11.912Z,8.59
2022-11-05T17:42:14.302Z,8.72
2022-11-05T17:45:16.474Z,8.67
2022-11-05T17:48:19.561Z,8.68
2022-11-05T17:51:21.859Z,8.67
2022-11-05T17:54:23.816Z,8.67
2022-11-05T17:57:25.941Z,8.63
2022-11-05T18:00:28.750Z,8.62
2022-11-05T18:03:36.433Z,8.70
2022-11-05T18:06:40.114Z,8.70
2022-11-05T18:09:42.540Z,8.72
2022-11-05T18:12:45.635Z,8.69
2022-11-05T18:15:47.898Z,8.65
2022-11-05T18:18:49.869Z,8.73
2022-11-05T18:21:51.882Z,8.67
2022-11-05T18:24:54.838Z,8.68
2022-11-05T18:27:57.135Z,8.68
2022-11-05T18:30:58.980Z,8.75
2022-11-05T18:34:01.099Z,8.76
2022-11-05T18:37:03.380Z,8.67
2022-11-05T18:40:06.693Z,8.70
2022-11-05T18:43:09.139Z,8.73
2022-11-05T18:46:29.320Z,8.76
2022-11-05T18:49:39.462Z,8.68
2022-11-05T18:52:41.635Z,8.71
2022-11-05T18:55:43.787Z,8.73
2022-11-05T18:58:46.804Z,8.73
2022-11-05T19:01:49.656Z,8.76
2022-11-05T19:05:22.141Z,8.75
2022-11-05T19:08:14.273Z,8.72
2022-11-05T19:11:19.851Z,8.74
2022-11-05T19:14:22.475Z,8.73
2022-11-05T19:17:25.037Z,8.79
2022-11-05T19:20:28.169Z,8.75
2022-11-05T19:23:31.197Z,8.73
2022-11-05T19:26:33.251Z,8.72
2022-11-05T19:29:35.450Z,8.72
2022-11-05T19:33:31.054Z,8.71
2022-11-05T19:36:34.275Z,8.74
2022-11-05T19:39:37.012Z,8.77
2022-11-05T19:42:39.334Z,8.73
2022-11-05T19:45:44.932Z,8.67
2022-11-05T19:48:48.409Z,8.66
2022-11-05T19:51:50.501Z,8.67
2022-11-05T19:54:52.318Z,8.74
2022-11-05T19:57:54.430Z,8.73
2022-11-05T20:00:56.723Z,8.72
2022-11-05T20:04:00.584Z,8.71
2022-11-05T20:07:04.423Z,8.67
2022-11-05T20:10:09.438Z,8.63
2022-11-05T20:13:18.570Z,8.63
2022-11-05T20:16:32.585Z,8.62
2022-11-05T20:19:35.880Z,8.64
2022-11-05T20:22:38.936Z,8.60
2022-11-05T20:25:42.800Z,8.56
2022-11-05T20:28:45.923Z,8.48
2022-11-05T20:31:48.551Z,8.55
2022-11-05T20:34:50.998Z,8.61
2022-11-05T20:37:54.350Z,8.56
2022-11-05T20:40:56.879Z,8.48
2022-11-05T20:43:59.523Z,8.53
2022-11-05T20:47:01.881Z,8.54
2022-11-05T20:50:05.109Z,8.46
2022-11-05T20:53:09.330Z,8.48
2022-11-05T20:56:24.627Z,8.51
2022-11-05T20:59:27.209Z,8.48
2022-11-05T21:02:29.517Z,8.50
2022-11-05T21:05:35.518Z,8.47
2022-11-05T21:08:38.397Z,8.51
2022-11-05T21:11:59.071Z,8.51
2022-11-05T21:15:01.310Z,8.55
2022-11-05T21:18:04.432Z,8.52
2022-11-05T21:21:15.455Z,8.53
2022-11-05T21:24:17.762Z,8.58
2022-11-05T21:27:19.787Z,8.48
2022-11-05T21:30:22.066Z,8.54
2022-11-05T21:33:24.107Z,8.56
2022-11-05T21:36:26.297Z,8.57
2022-11-05T21:39:29.109Z,8.59
2022-11-05T21:42:31.221Z,8.64
2022-11-05T21:45:33.556Z,8.60
2022-11-05T21:48:36.998Z,8.61
2022-11-05T21:51:57.680Z,8.59
2022-11-05T21:55:18.926Z,8.61
2022-11-05T21:58:40.492Z,8.61
2022-11-05T22:01:44.636Z,8.60
2022-11-05T22:04:52.745Z,8.58
2022-11-05T22:07:55.044Z,8.56
2022-11-05T22:10:56.971Z,8.55
2022-11-05T22:13:59.043Z,8.52
2022-11-05T22:17:01.440Z,8.47
2022-11-05T22:20:04.540Z,8.53
2022-11-05T22:23:11.118Z,8.51
2022-11-05T22:26:13.856Z,8.47
2022-11-05T22:29:16.523Z,8.43
2022-11-05T22:32:18.757Z,8.44
2022-11-05T22:35:20.740Z,8.45
2022-11-05T22:38:22.809Z,8.45
2022-11-05T22:41:24.969Z,8.43
2022-11-05T22:44:27.709Z,8.41
2022-11-05T22:47:29.650Z,8.43
2022-11-05T22:50:33.592Z,8.42
2022-11-05T22:53:36.848Z,8.49
2022-11-05T22:56:41.268Z,8.45
2022-11-05T22:59:43.266Z,8.44
2022-11-05T23:02:45.480Z,8.46
2022-11-05T23:05:47.525Z,8.41
2022-11-05T23:09:07.964Z,8.45
2022-11-05T23:12:23.500Z,8.45
2022-11-05T23:15:44.038Z,8.51
2022-11-05T23:19:04.452Z,8.41
2022-11-05T23:22:30.268Z,8.43
2022-11-05T23:25:32.030Z,8.36
2022-11-05T23:28:33.865Z,8.38
2022-11-05T23:31:54.489Z,8.32
2022-11-05T23:34:59.670Z,8.38
2022-11-05T23:38:20.167Z,8.39
2022-11-05T23:41:40.507Z,8.34
2022-11-05T23:45:01.002Z,8.36
2022-11-05T23:48:18.773Z,8.36
2022-11-05T23:51:20.702Z,8.37
2022-11-05T23:54:22.566Z,8.32
2022-11-05T23:57:24.309Z,8.47
